Time;durP1;ratioP1;P1;durP2;ratioP2;P2;SDS_P1;SDS_P2;PMS_P1;PMS_P2;Temp;Humidity;BMP_temperature;BMP_pressure;BME280_temperature;BME280_humidity;BME280_pressure;Samples;Min_cycle;Max_cycle;Signal;HPM_P1;HPM_P2
2023/06/07 00:01:06;;;;;;;6.88;6.30;;;12.90;99.90;;;13.78;95.03;98009.69;5205422;28;20716;-65
2023/06/07 00:03:40;;;;;;;6.20;5.70;;;12.90;99.90;;;13.85;94.67;98011.75;5209827;28;20248;-65
2023/06/07 00:06:16;;;;;;;6.32;5.82;;;12.90;99.90;;;13.83;94.36;98018.50;5204583;28;20730;-65
2023/06/07 00:08:49;;;;;;;6.00;5.60;;;12.90;99.90;;;13.82;95.22;98015.84;5202675;28;20290;-64
2023/06/07 00:11:22;;;;;;;7.28;6.68;;;12.90;99.90;;;13.77;95.17;98013.09;5204170;28;20230;-65
2023/06/07 00:13:55;;;;;;;6.55;6.05;;;12.90;99.90;;;13.78;96.61;98012.25;5203585;28;20245;-65
2023/06/07 00:16:29;;;;;;;6.97;6.47;;;12.80;99.90;;;13.84;95.16;98015.13;5200516;28;20690;-65
2023/06/07 00:19:03;;;;;;;6.28;5.88;;;12.80;99.90;;;13.65;94.99;98009.91;5202445;28;20221;-65
2023/06/07 00:21:38;;;;;;;7.43;6.72;;;12.70;99.90;;;13.61;96.04;98005.44;5203327;28;20264;-65
2023/06/07 00:24:11;;;;;;;7.10;6.50;;;12.60;99.90;;;13.57;96.64;98004.44;5203043;28;20232;-65
2023/06/07 00:26:45;;;;;;;6.78;6.28;;;12.60;99.90;;;13.57;96.78;98006.13;5198731;28;20603;-65
2023/06/07 00:29:18;;;;;;;6.93;6.45;;;12.60;99.90;;;13.55;96.83;98005.16;5202354;28;20222;-65
2023/06/07 00:31:51;;;;;;;6.97;6.47;;;12.50;99.90;;;13.50;95.75;98004.94;5206948;28;20214;-65
2023/06/07 00:34:24;;;;;;;6.68;6.18;;;12.50;99.90;;;13.39;95.85;97999.31;5203510;28;20237;-65
2023/06/07 00:36:59;;;;;;;6.80;6.22;;;12.50;99.90;;;13.44;95.92;97995.25;5199771;28;20229;-65
2023/06/07 00:39:32;;;;;;;8.27;6.95;;;12.50;99.90;;;13.46;95.69;97993.66;5203142;28;20652;-65
2023/06/07 00:42:06;;;;;;;6.70;6.22;;;12.50;99.90;;;13.40;96.29;97998.50;5203616;28;20221;-65
2023/06/07 00:44:40;;;;;;;7.00;6.47;;;12.50;99.90;;;13.31;97.04;97987.78;5204145;28;20279;-65
2023/06/07 00:47:13;;;;;;;6.85;6.32;;;12.50;99.90;;;13.37;96.14;97990.63;5211174;28;20226;-65
2023/06/07 00:49:46;;;;;;;7.32;6.82;;;12.50;99.90;;;13.33;97.38;97998.09;5203008;28;20222;-65
2023/06/07 00:52:21;;;;;;;7.10;6.40;;;12.40;99.90;;;13.31;96.50;97997.19;5203644;28;20693;-64
2023/06/07 00:54:54;;;;;;;7.32;6.82;;;12.40;99.90;;;13.34;97.22;97994.75;5205451;28;20650;-64
2023/06/07 00:57:29;;;;;;;7.68;6.95;;;12.40;99.90;;;13.31;97.39;97990.34;5201445;28;20295;-65
2023/06/07 01:00:05;;;;;;;7.38;6.88;;;12.40;99.90;;;13.30;96.95;97980.88;5202412;28;20310;-65
2023/06/07 01:02:39;;;;;;;7.20;6.60;;;12.40;99.90;;;13.32;96.84;97993.78;5204816;28;20739;-65
2023/06/07 01:05:13;;;;;;;7.50;6.90;;;12.40;99.90;;;13.26;97.44;97996.94;5204084;28;20774;-65
2023/06/07 01:07:48;;;;;;;7.53;6.95;;;12.30;99.90;;;13.21;97.35;97999.25;5201617;28;20709;-64
2023/06/07 01:10:22;;;;;;;7.38;6.85;;;12.30;99.90;;;13.22;96.44;97995.88;5204484;28;20217;-65
2023/06/07 01:12:57;;;;;;;7.53;6.93;;;12.20;99.90;;;13.21;97.38;97998.38;5197505;28;20260;-65
2023/06/07 01:15:31;;;;;;;6.40;5.85;;;12.20;99.90;;;13.13;97.50;97994.53;5202611;28;20221;-65
2023/06/07 01:18:04;;;;;;;6.70;6.20;;;12.20;99.90;;;13.11;97.19;97991.91;5200754;28;20271;-65
2023/06/07 01:20:39;;;;;;;6.70;6.20;;;12.20;99.90;;;13.07;97.46;97989.97;5199635;28;20234;-65
2023/06/07 01:23:15;;;;;;;7.07;6.57;;;12.20;99.90;;;13.08;97.27;97995.22;5201896;28;20819;-65
2023/06/07 01:25:49;;;;;;;7.72;7.22;;;12.20;99.90;;;12.96;97.94;97992.03;5201735;28;20283;-65
2023/06/07 01:28:23;;;;;;;6.97;6.47;;;12.10;99.90;;;12.98;97.71;97994.66;5202545;28;20394;-65
2023/06/07 01:30:56;;;;;;;7.85;7.25;;;12.00;99.90;;;12.99;97.71;97991.28;5201049;28;20275;-65
2023/06/07 01:33:31;;;;;;;7.00;6.40;;;12.10;99.90;;;12.95;97.55;97987.69;5201634;28;20241;-65
2023/06/07 01:36:06;;;;;;;7.20;6.60;;;12.00;99.90;;;12.93;98.60;97985.84;5203553;28;20212;-65
2023/06/07 01:38:40;;;;;;;7.45;6.85;;;12.00;99.90;;;12.91;97.46;97993.50;5203155;28;20789;-64
2023/06/07 01:41:16;;;;;;;7.53;7.00;;;11.90;99.90;;;12.78;96.47;97988.53;5201575;28;20333;-64
2023/06/07 01:43:50;;;;;;;7.32;6.80;;;11.80;99.90;;;12.62;96.88;97994.59;5202299;28;20711;-65
2023/06/07 01:46:23;;;;;;;7.82;7.22;;;11.70;99.90;;;12.61;97.40;97991.13;5204521;28;20233;-65
2023/06/07 01:48:56;;;;;;;8.02;7.43;;;11.70;99.90;;;12.66;98.68;97985.34;5200744;28;20295;-65
2023/06/07 01:51:29;;;;;;;7.90;7.30;;;11.80;99.90;;;12.60;99.22;97981.69;5201422;28;20276;-65
2023/06/07 01:54:03;;;;;;;8.10;7.40;;;11.70;99.90;;;12.52;99.22;97982.09;5205764;28;20234;-65
2023/06/07 01:56:49;;;;;;;7.93;7.35;;;11.60;99.90;;;12.55;99.25;97975.44;5196697;28;20658;-65
2023/06/07 01:59:34;;;;;;;7.55;6.95;;;11.70;99.90;;;12.58;98.97;97983.28;5205169;28;20716;-65
2023/06/07 02:02:18;;;;;;;7.82;7.32;;;11.70;99.90;;;12.54;98.85;97977.94;5197178;28;20315;-65
2023/06/07 02:04:56;;;;;;;8.38;7.65;;;11.60;99.90;;;12.56;99.84;97966.94;5203226;28;20228;-65
2023/06/07 02:07:46;;;;;;;7.28;6.78;;;11.60;99.90;;;12.69;98.19;97978.69;5201838;28;20234;-65
2023/06/07 02:10:24;;;;;;;7.05;6.55;;;11.70;99.90;;;12.70;97.78;97982.13;5198554;28;20767;-65
2023/06/07 02:12:59;;;;;;;7.38;6.88;;;11.70;99.90;;;12.57;98.76;97980.66;5197332;28;20243;-65
2023/06/07 02:15:32;;;;;;;7.90;7.30;;;11.60;99.90;;;12.49;99.74;97977.69;5200631;28;20228;-65
2023/06/07 02:18:06;;;;;;;7.57;7.05;;;11.60;99.90;;;12.48;99.54;97980.19;5208497;28;20678;-65
2023/06/07 02:20:39;;;;;;;7.32;6.72;;;11.60;99.90;;;12.48;99.49;97980.19;5203707;28;20229;-65
2023/06/07 02:23:12;;;;;;;7.20;6.70;;;11.50;99.90;;;12.44;98.98;97974.00;5194509;28;20229;-65
2023/06/07 02:25:45;;;;;;;7.72;7.10;;;11.50;99.90;;;12.43;98.10;97977.38;5200243;28;20238;-64
2023/06/07 02:28:20;;;;;;;7.32;6.82;;;11.40;99.90;;;12.33;98.76;97970.91;5198429;28;20230;-65
2023/06/07 02:30:55;;;;;;;7.00;6.60;;;11.40;99.90;;;12.26;99.02;97976.50;5202929;28;20221;-65
2023/06/07 02:33:28;;;;;;;8.00;7.45;;;11.30;99.90;;;12.29;99.10;97975.78;5199064;28;20320;-64
2023/06/07 02:36:02;;;;;;;7.35;6.75;;;11.40;99.90;;;12.24;99.47;97977.22;5200021;28;20222;-65
2023/06/07 02:38:35;;;;;;;8.32;7.72;;;11.40;99.90;;;12.18;99.44;97976.06;5198481;28;20629;-65
2023/06/07 02:41:08;;;;;;;8.05;7.50;;;11.30;99.90;;;12.17;99.59;97970.88;5197840;28;20244;-64
2023/06/07 02:43:43;;;;;;;7.90;7.20;;;11.30;99.90;;;12.20;100.00;97977.88;5198963;28;20271;-65
2023/06/07 02:46:16;;;;;;;7.97;7.38;;;11.30;99.90;;;12.23;99.61;97978.03;5197285;28;20233;-65
2023/06/07 02:48:49;;;;;;;7.65;7.07;;;11.30;99.90;;;12.29;99.82;97983.47;5203407;28;20229;-65
2023/06/07 02:51:22;;;;;;;8.23;7.53;;;11.40;99.90;;;12.30;99.83;97980.09;5201200;28;20221;-65
2023/06/07 02:53:56;;;;;;;7.78;7.07;;;11.40;99.90;;;12.32;99.23;97973.38;5198799;28;20229;-65
2023/06/07 02:56:32;;;;;;;7.80;7.30;;;11.40;99.90;;;12.30;99.22;97977.53;5198216;28;20226;-66
2023/06/07 02:59:06;;;;;;;8.65;8.02;;;11.40;99.90;;;12.27;99.75;97982.50;5199573;28;20311;-64
2023/06/07 03:01:40;;;;;;;8.23;7.55;;;11.40;99.90;;;12.23;99.55;97981.47;5197995;28;20247;-65
2023/06/07 03:04:13;;;;;;;7.55;7.05;;;11.40;99.90;;;12.23;100.00;97983.16;5196517;28;20222;-64
2023/06/07 03:06:46;;;;;;;8.38;7.68;;;11.40;99.90;;;12.20;100.00;97986.44;5200047;28;20229;-65
2023/06/07 03:09:21;;;;;;;8.00;7.40;;;11.30;99.90;;;12.25;99.94;97981.56;5199702;28;20221;-64
2023/06/07 03:11:54;;;;;;;8.10;7.53;;;11.30;99.90;;;12.17;99.69;97981.16;5202019;28;20765;-65
2023/06/07 03:14:28;;;;;;;8.27;7.70;;;11.20;99.90;;;12.18;99.46;97981.19;5181546;28;20825;-65
2023/06/07 03:17:02;;;;;;;7.50;7.00;;;11.20;99.90;;;12.16;99.19;97981.91;5202170;28;20340;-64
2023/06/07 03:19:36;;;;;;;8.02;7.53;;;11.10;99.90;;;12.13;99.33;97985.22;5195441;28;20241;-65
2023/06/07 03:22:09;;;;;;;7.82;7.22;;;11.20;99.90;;;12.05;98.99;97986.50;5197666;28;20218;-65
2023/06/07 03:24:43;;;;;;;8.15;7.53;;;11.10;99.90;;;12.04;99.91;97991.53;5199821;28;20308;-65
2023/06/07 03:27:17;;;;;;;7.82;7.22;;;11.10;99.90;;;12.02;100.00;97990.56;5207222;28;20612;-65
2023/06/07 03:29:51;;;;;;;8.30;7.70;;;11.10;99.90;;;12.01;100.00;97991.38;5201398;28;20304;-66
2023/06/07 03:32:24;;;;;;;7.05;6.55;;;11.10;99.90;;;11.96;100.00;97993.69;5207114;28;20241;-65
2023/06/07 03:34:58;;;;;;;7.75;7.15;;;11.00;99.90;;;12.00;100.00;97999.88;5207556;28;20235;-65
2023/06/07 03:37:31;;;;;;;7.63;7.13;;;11.10;99.90;;;12.04;100.00;97997.53;5204166;28;20222;-65
2023/06/07 03:40:05;;;;;;;7.97;7.47;;;11.10;99.90;;;12.01;100.00;97999.06;5209710;28;20231;-65
2023/06/07 03:42:39;;;;;;;7.40;6.80;;;11.10;99.90;;;11.88;100.00;97998.41;5205659;28;20219;-65
2023/06/07 03:45:14;;;;;;;7.60;7.10;;;10.90;99.90;;;11.89;99.81;97996.72;5198093;28;20265;-65
2023/06/07 03:47:47;;;;;;;7.88;7.28;;;10.90;99.90;;;11.82;100.00;98003.16;5208004;28;20221;-65
2023/06/07 03:50:21;;;;;;;7.30;6.80;;;10.80;99.90;;;11.78;99.90;98005.47;5205998;28;20365;-65
2023/06/07 03:52:54;;;;;;;7.43;6.82;;;10.80;99.90;;;11.76;99.72;97999.38;5197121;28;20489;-65
2023/06/07 03:55:29;;;;;;;8.45;7.85;;;10.80;99.90;;;11.79;100.00;98007.22;5202341;28;20230;-65
2023/06/07 03:58:02;;;;;;;7.82;7.25;;;10.90;99.90;;;11.84;100.00;98001.53;5204617;28;20585;-65
2023/06/07 04:00:37;;;;;;;8.70;8.10;;;10.90;99.90;;;11.87;100.00;98004.31;5204603;28;20279;-65
2023/06/07 04:03:10;;;;;;;7.95;7.35;;;11.00;99.90;;;11.94;100.00;97993.59;5196859;28;20240;-65
2023/06/07 04:05:43;;;;;;;8.77;7.72;;;11.10;99.90;;;12.04;100.00;97992.41;5210144;28;20264;-65
2023/06/07 04:08:16;;;;;;;9.02;8.43;;;11.20;99.90;;;12.07;100.00;97996.81;5203231;28;20221;-65
2023/06/07 04:10:50;;;;;;;7.90;7.32;;;11.20;99.90;;;12.13;99.54;98000.59;5198540;28;20252;-65
2023/06/07 04:13:23;;;;;;;8.27;7.68;;;11.20;99.90;;;12.15;98.87;98003.22;5199368;28;20713;-65
2023/06/07 04:15:57;;;;;;;8.35;7.75;;;11.20;99.90;;;12.16;98.69;98003.31;5205324;28;20229;-65
2023/06/07 04:18:30;;;;;;;8.07;7.57;;;11.20;99.90;;;12.21;98.99;98001.00;5198742;28;20578;-65
2023/06/07 04:21:05;;;;;;;8.57;7.95;;;11.30;99.90;;;12.24;98.94;98002.84;5207674;28;20251;-66
2023/06/07 04:23:38;;;;;;;8.23;7.55;;;11.20;99.90;;;12.19;98.91;98005.19;5208638;28;20705;-65
2023/06/07 04:26:12;;;;;;;8.60;7.90;;;11.30;99.90;;;12.21;99.06;97997.56;5204085;28;20608;-65
2023/06/07 04:28:45;;;;;;;9.00;8.40;;;11.30;99.90;;;12.24;99.86;97997.72;5197790;28;20222;-65
2023/06/07 04:31:22;;;;;;;8.40;7.80;;;11.40;99.90;;;12.36;98.63;98006.94;5210580;28;20597;-66
2023/06/07 04:33:57;;;;;;;9.88;9.07;;;11.50;99.90;;;12.44;100.00;98009.00;5197568;28;20224;-66
2023/06/07 04:36:30;;;;;;;8.82;8.23;;;11.60;99.90;;;12.52;99.13;98016.28;5200337;28;20225;-66
2023/06/07 04:39:05;;;;;;;9.23;8.52;;;11.60;99.90;;;12.67;98.98;98011.06;5197618;28;20237;-66
2023/06/07 04:41:40;;;;;;;9.15;8.45;;;11.70;99.90;;;12.75;98.48;98011.47;5200698;28;20225;-65
2023/06/07 04:44:13;;;;;;;8.00;7.50;;;11.90;99.90;;;13.17;98.19;98004.16;5205290;28;20221;-66
2023/06/07 04:46:48;;;;;;;8.75;8.15;;;12.30;99.90;;;13.70;95.92;98000.75;5213000;28;20225;-66
2023/06/07 04:49:23;;;;;;;8.90;8.30;;;12.80;99.90;;;14.19;92.74;98008.13;5208915;28;20350;-65
2023/06/07 04:51:56;;;;;;;9.35;8.55;;;13.20;99.90;;;14.79;89.11;97997.94;5202141;28;20220;-66
2023/06/07 04:54:29;;;;;;;8.82;8.05;;;13.60;99.90;;;15.26;85.70;97997.34;5206797;28;20252;-66
2023/06/07 04:57:02;;;;;;;8.98;8.10;;;14.10;99.90;;;15.81;83.82;97997.81;5202442;28;20221;-66
2023/06/07 04:59:42;;;;;;;8.45;7.70;;;14.40;99.90;;;16.24;80.03;98004.59;5209728;28;20233;-65
2023/06/07 05:02:17;;;;;;;7.50;6.90;;;14.70;99.90;;;16.67;78.47;98007.91;5201274;28;20702;-66
2023/06/07 05:04:52;;;;;;;7.82;7.28;;;15.00;99.90;;;17.07;75.82;98009.31;5200117;28;20774;-66
2023/06/07 05:07:32;;;;;;;7.57;6.97;;;15.20;99.90;;;17.44;75.34;98002.78;5201676;28;20247;-66
2023/06/07 05:10:06;;;;;;;7.20;6.70;;;15.50;99.90;;;17.82;73.05;98008.31;5208424;28;20302;-66
2023/06/07 05:12:40;;;;;;;7.78;7.28;;;16.00;99.90;;;17.97;70.44;98015.66;5201873;28;20692;-66
2023/06/07 05:15:13;;;;;;;7.50;7.00;;;16.10;99.90;;;18.13;68.32;98017.03;5205007;28;20704;-66
2023/06/07 05:17:48;;;;;;;8.10;7.40;;;16.40;99.90;;;18.13;68.42;98014.44;5199301;28;20733;-65
2023/06/07 05:20:24;;;;;;;7.00;6.50;;;16.30;99.90;;;18.44;68.26;98011.91;5203610;28;20221;-65
2023/06/07 05:22:57;;;;;;;7.50;6.90;;;16.50;99.90;;;18.63;66.73;98008.13;5197181;28;20220;-65
2023/06/07 05:25:31;;;;;;;7.78;7.15;;;16.60;99.90;;;18.75;67.01;98002.44;5201627;28;20229;-65
2023/06/07 05:28:05;;;;;;;7.35;6.85;;;16.80;99.90;;;18.87;65.70;98000.16;5205971;28;20229;-67
2023/06/07 05:30:45;;;;;;;7.57;7.07;;;17.00;99.90;;;19.14;64.47;97991.34;5195282;28;20221;-66
2023/06/07 05:33:21;;;;;;;7.85;7.15;;;17.20;99.90;;;19.42;63.20;97998.09;5198992;28;20732;-64
2023/06/07 05:35:54;;;;;;;7.72;7.13;;;17.50;99.90;;;19.46;63.90;98001.63;5207420;28;20233;-65
2023/06/07 05:38:27;;;;;;;8.20;7.50;;;17.40;99.90;;;19.94;61.52;98014.03;5203487;28;20230;-66
2023/06/07 05:41:00;;;;;;;8.40;7.80;;;17.70;99.90;;;19.83;61.52;98000.84;5207240;28;20221;-65
2023/06/07 05:43:33;;;;;;;8.05;7.45;;;18.00;99.90;;;20.20;60.41;97996.44;5205673;28;20235;-66
2023/06/07 05:46:06;;;;;;;8.25;7.75;;;17.90;99.90;;;20.33;60.38;98002.78;5200147;28;20217;-66
2023/06/07 05:48:41;;;;;;;8.02;7.43;;;18.10;99.90;;;20.48;59.85;98009.16;5202407;28;20217;-65
2023/06/07 05:51:14;;;;;;;7.95;7.40;;;18.30;99.90;;;20.80;60.08;97997.66;5199440;28;20221;-65
2023/06/07 05:53:47;;;;;;;7.95;7.43;;;18.60;99.90;;;20.73;59.01;98001.00;5202600;28;20233;-66
2023/06/07 05:56:21;;;;;;;8.70;8.02;;;18.50;99.90;;;21.00;57.34;97998.91;5204829;28;20226;-66
2023/06/07 05:58:54;;;;;;;8.48;7.78;;;18.70;99.90;;;21.25;58.84;97999.34;5194830;28;20229;-66
2023/06/07 06:01:29;;;;;;;7.50;6.90;;;18.80;99.90;;;21.64;55.92;97998.28;5202742;28;20233;-66
2023/06/07 06:04:04;;;;;;;8.10;7.40;;;19.00;99.90;;;21.78;55.59;98004.59;5199568;28;20575;-66
2023/06/07 06:06:38;;;;;;;7.72;7.13;;;19.10;99.90;;;21.88;55.24;98006.44;5179733;28;20721;-66
2023/06/07 06:09:11;;;;;;;7.13;6.63;;;19.30;99.90;;;21.82;55.89;97998.56;5185580;28;20612;-66
2023/06/07 06:11:44;;;;;;;8.10;7.40;;;19.30;99.90;;;21.91;55.05;98003.03;5205634;28;20763;-65
2023/06/07 06:14:17;;;;;;;6.82;6.38;;;19.40;99.90;;;22.18;55.34;97999.97;5199867;28;20230;-65
2023/06/07 06:16:50;;;;;;;7.43;6.93;;;19.40;99.90;;;22.23;55.27;97996.59;5198247;28;20662;-64
2023/06/07 06:19:26;;;;;;;7.13;6.53;;;19.50;99.90;;;22.46;55.81;97996.88;5200283;28;20226;-64
2023/06/07 06:21:59;;;;;;;7.70;7.10;;;19.80;99.90;;;22.55;54.10;97992.59;5196792;28;20254;-65
2023/06/07 06:24:32;;;;;;;6.95;6.45;;;20.00;99.90;;;22.92;55.38;97989.56;5197075;28;20248;-65
2023/06/07 06:27:07;;;;;;;6.93;6.43;;;20.30;99.90;;;23.53;52.66;97991.88;5204856;28;20273;-65
2023/06/07 06:29:41;;;;;;;6.85;6.35;;;20.90;99.90;;;24.05;51.27;97999.22;5191191;28;20225;-65
2023/06/07 06:32:14;;;;;;;7.28;6.78;;;21.30;99.90;;;24.08;50.22;97987.91;5200624;28;20769;-65
2023/06/07 06:34:49;;;;;;;6.72;6.22;;;21.30;99.90;;;24.27;50.41;97990.63;5202909;28;20260;-65
2023/06/07 06:37:22;;;;;;;7.28;6.78;;;21.50;99.90;;;24.62;48.85;97987.31;5206758;28;20290;-65
2023/06/07 06:39:55;;;;;;;7.90;7.30;;;21.50;99.90;;;24.61;48.53;97989.91;5200401;28;20222;-65
2023/06/07 06:42:28;;;;;;;7.65;7.15;;;21.90;99.90;;;24.67;50.18;97988.19;5201582;28;20265;-65
2023/06/07 06:45:01;;;;;;;6.95;6.45;;;22.00;99.90;;;24.35;49.88;97981.94;5200997;28;20225;-65
2023/06/07 06:47:36;;;;;;;7.05;6.65;;;21.50;99.90;;;24.40;49.99;97988.94;5201898;28;20647;-65
2023/06/07 06:50:13;;;;;;;6.63;6.07;;;21.90;99.90;;;25.12;49.67;97998.75;5200716;28;20770;-65
2023/06/07 06:53:04;;;;;;;7.72;7.03;;;22.40;99.90;;;25.25;48.94;97994.44;5198441;28;20306;-65
2023/06/07 06:55:37;;;;;;;6.10;5.70;;;22.50;99.90;;;25.66;48.42;97996.19;5200261;28;20221;-65
2023/06/07 06:58:10;;;;;;;6.35;5.90;;;22.70;99.90;;;26.09;46.97;97994.38;5205128;28;20241;-65
2023/06/07 07:00:43;;;;;;;6.72;6.32;;;23.30;99.80;;;25.92;47.69;97998.78;5202994;28;20709;-65
2023/06/07 07:03:16;;;;;;;6.10;5.70;;;23.20;99.80;;;26.29;46.73;97994.34;5208873;28;20724;-65
2023/06/07 07:05:51;;;;;;;7.32;6.72;;;23.30;99.80;;;25.57;48.13;97999.69;5205123;28;20233;-65
2023/06/07 07:08:25;;;;;;;6.13;5.75;;;23.40;99.40;;;25.94;47.42;97990.06;5205420;28;20677;-65
2023/06/07 07:10:58;;;;;;;6.72;6.22;;;23.60;99.00;;;26.41;46.79;97991.69;5203099;28;20220;-64
2023/06/07 07:13:32;;;;;;;7.47;6.97;;;23.90;98.20;;;25.63;47.84;97997.06;5207777;28;20221;-65
2023/06/07 07:16:05;;;;;;;6.65;6.25;;;23.10;99.10;;;25.83;48.09;97999.69;5204946;28;20774;-65
2023/06/07 07:18:39;;;;;;;6.38;5.90;;;23.50;99.10;;;26.29;47.29;97995.19;5202522;28;20229;-64
2023/06/07 07:21:13;;;;;;;6.30;5.80;;;23.60;99.20;;;26.35;46.79;97994.31;5206255;28;20225;-64
2023/06/07 07:23:46;;;;;;;5.72;5.28;;;24.00;98.10;;;26.86;46.53;97994.13;5204372;28;20221;-65
2023/06/07 07:26:20;;;;;;;6.07;5.68;;;24.30;98.10;;;26.81;45.77;97994.13;5203279;28;20319;-64
2023/06/07 07:28:53;;;;;;;5.28;4.90;;;23.90;97.90;;;26.84;46.16;97991.50;5209385;28;20229;-64
2023/06/07 07:31:30;;;;;;;4.90;4.50;;;24.00;98.40;;;26.96;46.14;97987.94;5203386;28;20317;-65
2023/06/07 07:34:04;;;;;;;5.03;4.72;;;24.30;98.00;;;26.90;45.20;97994.09;5204561;28;20228;-64
2023/06/07 07:36:39;;;;;;;5.30;5.00;;;24.60;96.80;;;27.06;44.70;97989.59;5207801;28;20240;-65
2023/06/07 07:39:13;;;;;;;4.60;4.22;;;24.50;96.50;;;27.32;45.12;97985.97;5203988;28;20220;-65
2023/06/07 07:41:46;;;;;;;4.22;3.92;;;24.70;96.60;;;27.32;43.42;97986.81;5205989;28;20276;-65
2023/06/07 07:44:19;;;;;;;4.70;4.40;;;24.70;95.10;;;27.62;43.23;97995.34;5206082;28;20229;-64
2023/06/07 07:46:52;;;;;;;4.40;4.10;;;24.70;95.70;;;27.79;43.36;97997.88;5205658;28;20274;-65
2023/06/07 07:49:25;;;;;;;4.40;4.10;;;25.10;95.30;;;27.67;42.87;97985.69;5198468;28;20245;-64
2023/06/07 07:52:00;;;;;;;3.60;3.40;;;25.10;94.70;;;27.53;43.12;97990.19;5201758;28;20701;-65
2023/06/07 07:54:33;;;;;;;3.55;3.30;;;24.90;95.20;;;28.28;41.11;97985.06;5203118;28;20692;-66
2023/06/07 07:57:06;;;;;;;3.50;3.30;;;25.40;94.00;;;28.54;40.93;97990.94;5200295;28;20280;-65
2023/06/07 07:59:39;;;;;;;3.90;3.60;;;25.60;93.90;;;28.26;40.73;97989.47;5192337;28;20217;-64
2023/06/07 08:02:12;;;;;;;3.30;3.10;;;25.40;93.50;;;28.74;40.04;97987.13;5196460;28;20755;-65
2023/06/07 08:04:46;;;;;;;3.65;3.42;;;25.70;93.20;;;28.75;39.80;97988.88;5193702;28;20225;-64
2023/06/07 08:07:20;;;;;;;4.13;3.92;;;25.90;92.60;;;28.73;40.98;97992.41;5189776;28;20222;-65
2023/06/07 08:09:53;;;;;;;4.00;3.70;;;25.90;93.30;;;29.16;39.38;97995.34;5210728;28;20290;-65
2023/06/07 08:12:27;;;;;;;3.20;3.00;;;25.80;92.70;;;29.55;37.68;97994.72;5199482;28;20233;-65
2023/06/07 08:15:00;;;;;;;3.97;3.67;;;26.30;91.70;;;29.02;39.39;97986.75;5191182;28;20690;-67
2023/06/07 08:17:33;;;;;;;3.10;2.90;;;25.80;92.30;;;29.24;39.12;97987.31;5193436;28;20232;-66
2023/06/07 08:20:08;;;;;;;3.10;2.90;;;26.10;91.90;;;29.00;39.07;97983.28;5187329;28;20214;-66
2023/06/07 08:22:43;;;;;;;3.45;3.25;;;26.20;91.70;;;28.33;39.86;97984.13;5194393;28;20232;-66
2023/06/07 08:25:16;;;;;;;2.88;2.67;;;25.80;91.50;;;28.38;40.55;97980.53;5186873;28;20222;-67
2023/06/07 08:27:50;;;;;;;2.70;2.60;;;25.90;92.30;;;28.53;40.13;97976.91;5182269;28;20292;-67
2023/06/07 08:30:23;;;;;;;3.28;3.08;;;26.00;92.40;;;28.33;40.54;97984.13;5183441;28;20315;-66
2023/06/07 08:32:56;;;;;;;2.70;2.50;;;25.80;91.70;;;28.17;41.56;97978.19;5188307;28;20412;-64
2023/06/07 08:35:30;;;;;;;2.97;2.63;;;26.00;91.90;;;28.17;40.19;97978.19;5193621;28;20453;-67
2023/06/07 08:38:04;;;;;;;2.40;2.30;;;26.30;90.70;;;28.06;39.63;97981.78;5187886;28;20228;-64
2023/06/07 08:40:38;;;;;;;2.63;2.50;;;26.40;89.20;;;27.65;41.44;97979.56;5195956;28;20236;-64
2023/06/07 08:43:11;;;;;;;2.72;2.53;;;26.00;91.00;;;27.89;40.45;97973.22;5195048;28;20654;-67
2023/06/07 08:45:45;;;;;;;3.13;2.80;;;26.20;90.00;;;27.72;40.21;97975.97;5195144;28;20601;-66
2023/06/07 08:48:18;;;;;;;2.30;2.20;;;25.80;89.90;;;27.73;40.66;97967.22;5196496;28;20217;-64
2023/06/07 08:50:56;;;;;;;2.42;2.25;;;25.90;90.50;;;28.01;39.90;97975.72;5189932;28;20237;-66
2023/06/07 08:53:41;;;;;;;2.50;2.30;;;26.20;90.10;;;27.40;39.19;97968.41;5181659;28;20229;-67
2023/06/07 08:56:15;;;;;;;2.28;2.13;;;26.40;86.10;;;27.58;39.81;97968.22;5195095;28;20221;-66
2023/06/07 08:58:51;;;;;;;2.88;2.67;;;26.10;87.90;;;27.55;40.91;97972.63;5192514;28;20308;-66
2023/06/07 09:01:24;;;;;;;2.60;2.40;;;26.20;89.30;;;27.70;39.59;97961.09;5186889;28;20276;-67
2023/06/07 09:03:58;;;;;;;2.67;2.47;;;26.60;86.40;;;27.78;39.27;97975.91;5181361;28;20325;-66
2023/06/07 09:06:34;;;;;;;2.92;2.72;;;26.80;86.10;;;27.80;39.84;97974.19;5187847;28;20297;-65
2023/06/07 09:09:08;;;;;;;2.92;2.72;;;26.60;86.40;;;27.60;39.76;97970.84;5199673;28;20217;-65
2023/06/07 09:11:41;;;;;;;2.58;2.38;;;26.40;86.50;;;27.82;39.09;97971.56;5202012;28;20235;-64
2023/06/07 09:14:15;;;;;;;2.75;2.55;;;26.50;86.70;;;27.87;39.00;97974.97;5198571;28;20311;-64
2023/06/07 09:16:55;;;;;;;2.80;2.60;;;26.40;86.70;;;27.67;40.06;97980.44;5205237;28;20225;-67
2023/06/07 09:19:34;;;;;;;2.60;2.50;;;26.60;86.90;;;26.89;40.57;97973.09;5204376;28;20512;-66
2023/06/07 09:22:12;;;;;;;2.50;2.40;;;26.10;86.10;;;27.36;40.35;97956.19;5197369;28;20229;-67
2023/06/07 09:24:47;;;;;;;2.88;2.67;;;26.50;85.70;;;27.72;40.21;97969.84;5203486;28;20274;-64
2023/06/07 09:27:29;;;;;;;2.60;2.40;;;26.80;87.40;;;27.65;38.80;97974.31;5200764;28;20252;-65
2023/06/07 09:30:07;;;;;;;2.70;2.50;;;26.60;84.10;;;27.74;39.51;97968.09;5199419;28;20221;-65
2023/06/07 09:32:40;;;;;;;2.95;2.75;;;26.60;85.30;;;27.77;39.07;97971.56;5206057;28;20233;-65
2023/06/07 09:35:15;;;;;;;2.53;2.33;;;26.80;85.20;;;27.97;38.80;97968.75;5202120;28;21037;-65
2023/06/07 09:37:52;;;;;;;2.70;2.60;;;26.80;83.80;;;27.96;37.84;97967.03;5202281;28;20225;-65
2023/06/07 09:40:27;;;;;;;2.55;2.38;;;27.10;82.40;;;27.59;38.23;97955.97;5203637;28;20302;-65
2023/06/07 09:43:00;;;;;;;3.03;2.83;;;26.60;82.80;;;27.69;39.44;97965.50;5199331;28;20220;-65
2023/06/07 09:45:34;;;;;;;2.80;2.60;;;26.40;84.70;;;27.49;38.18;97968.31;5206509;28;20229;-64
2023/06/07 09:48:09;;;;;;;2.75;2.55;;;26.30;82.60;;;27.52;38.82;97964.78;5205233;28;20225;-65
2023/06/07 09:50:56;;;;;;;3.10;2.90;;;26.40;84.00;;;27.39;38.02;97961.41;5200733;28;20661;-65
2023/06/07 09:53:30;;;;;;;3.10;2.90;;;26.30;82.40;;;27.33;38.36;97953.59;5202517;28;20225;-66
2023/06/07 09:56:17;;;;;;;2.83;2.63;;;26.20;83.30;;;27.52;38.42;97956.91;5202764;28;20692;-65
2023/06/07 09:59:06;;;;;;;3.65;2.80;;;26.60;82.20;;;27.69;37.29;97960.25;5201351;28;20217;-65
2023/06/07 10:01:42;;;;;;;3.10;2.90;;;26.60;81.40;;;27.49;37.16;97957.81;5206531;28;20229;-65
2023/06/07 10:04:15;;;;;;;2.97;2.75;;;26.20;80.90;;;27.58;37.07;97957.72;5201064;28;20689;-65
2023/06/07 10:06:54;;;;;;;2.80;2.60;;;26.20;81.60;;;27.73;37.31;97951.47;5198715;28;20228;-66
2023/06/07 10:09:29;;;;;;;3.40;3.10;;;26.60;80.70;;;27.94;36.57;97960.91;5201930;28;20224;-65
2023/06/07 10:12:06;;;;;;;3.78;2.40;;;27.00;79.40;;;28.05;36.17;97947.66;5200496;28;20228;-65
2023/06/07 10:14:43;;;;;;;3.17;2.88;;;27.20;78.40;;;28.10;34.77;97948.47;5188688;28;20344;-65
2023/06/07 10:17:21;;;;;;;3.15;2.90;;;27.20;76.70;;;27.93;35.73;97937.25;5191962;28;20221;-65
2023/06/07 10:19:59;;;;;;;2.85;2.55;;;26.90;77.70;;;27.95;35.09;97941.63;5185905;28;20724;-66
2023/06/07 10:22:39;;;;;;;2.63;2.53;;;26.80;77.30;;;27.93;35.48;97939.88;5179211;28;20413;-66
2023/06/07 10:25:18;;;;;;;3.30;2.97;;;26.80;77.10;;;27.47;36.25;97933.34;5178874;28;20253;-66
2023/06/07 10:28:06;;;;;;;3.22;3.03;;;26.30;78.10;;;27.12;37.77;97931.81;5185369;28;20249;-66
2023/06/07 10:30:49;;;;;;;3.00;2.80;;;26.00;81.20;;;27.15;37.82;97930.94;5177142;28;20244;-66
2023/06/07 10:33:25;;;;;;;3.05;2.85;;;26.10;80.80;;;27.21;37.43;97936.16;5190500;28;20272;-65
2023/06/07 10:35:59;;;;;;;2.80;2.60;;;26.20;79.50;;;26.92;37.08;97945.09;5196820;28;20224;-65
2023/06/07 10:38:34;;;;;;;2.78;2.60;;;26.20;79.20;;;26.99;37.90;97931.94;5177458;28;20248;-65
2023/06/07 10:41:08;;;;;;;3.35;3.05;;;26.20;80.10;;;27.16;37.23;97933.59;5187657;28;20221;-65
2023/06/07 10:43:46;;;;;;;3.00;2.72;;;26.30;79.20;;;26.87;37.05;97932.88;5184166;28;20685;-65
2023/06/07 10:46:23;;;;;;;3.08;2.88;;;26.00;78.50;;;27.03;37.50;97925.78;5194828;28;20243;-66
2023/06/07 10:48:59;;;;;;;3.03;2.83;;;26.00;79.40;;;27.11;36.31;97934.47;5188938;28;20219;-65